North Bend, WA

5:17 AM PDT on August 28, 2014 (GMT -0700)
Si View [SE 12th Pl] | Change Station
CLOSE
Current Station
Personal Weather Station
Location: North Bend, WA
Elevation: 449 ft
Nearby Weather Stations

Elev 449 ft 47.48 °N, 121.78 °W | Updated 1 second ago

Clear
Clear
53.4 °F
Feels Like 53.4 °F
N
0.0
Wind Variable Wind from North
Gusts 0.0 mph

Today
High -- | Low -- °F
--% Chance of Precip.
Yesterday
High -- | Low -- °F
Precip. -- in
6:20 AM 7:54 PM
Waxing Crescent, 8% visible
Pressure 30.09 in
Visibility 10.0 miles
Clouds Clear
Dew Point 39 °F
Humidity 60%
Rainfall 0.00 in
Snow Depth 0 in , 0 in
UV 0 out of 12
Pollen 3.50 out of 12
PM2.5 Good
Flu Activity Not available.
METAR KRNT 281153Z AUTO 17004KT 10SM CLR 17/14 A3007 RMK AO2 SLP189 T01670139 10217 20167 51012

More Conditions Fewer Conditions

Pressure 30.09 in
Visibility 10.0 miles
Clouds Clear
Dew Point 39 °F
Humidity 60%
Rainfall 0.00 in
Snow Depth 0 in , 0 in
UV 0 out of 12
Pollen 3.50 out of 12
PM2.5 Good
Flu Activity Not available.
METAR KRNT 281153Z AUTO 17004KT 10SM CLR 17/14 A3007 RMK AO2 SLP189 T01670139 10217 20167 51012

More Conditions Fewer Conditions

10-Day Weather Forecast

Almanac

Astronomy

Aug. 28, 2014 Rise Set
Actual Time 6:20 AM PDT 7:54 PM PDT
Civil Twilight 5:48 AM PDT 8:26 PM PDT
Nautical Twilight 5:09 AM PDT 9:06 PM PDT
Astronomical Twilight 4:26 AM PDT 9:48 PM PDT
Moon 9:33 AM PDT 9:04 PM PDT
Length of Visible Light 14h 38m
Length of Day
13h 34m
Tomorrow will be 3m 16s shorter.
Waxing Crescent, 8% of the Moon is Illuminated
Today
Waxing Crescent
Sep 2
First Quarter
Sep 8
Full
Sep 15
Last Quarter
Sep 24
New

Today's Extremes

State Highs State Lows

Community

WunderPhotos

Upload Photos

1,747,932 photos uploaded!

Nearby

Air Quality

  Air Quality AQ Index Pollutant
Yesterday Good
PM2.5
Yesterday Good
OZONE
Current Good
PM2.5
Thursday Good
OZONE
Thursday Good
PM2.5
Friday Good
OZONE
Friday Good
PM2.5
Saturday Good
OZONE
Saturday Good
PM2.5

Snow Depth

Station Depth Elevation
Mount Gardner 0 in 3000 ft
Olallie Meadows 0 in 3700 ft
Meadows Pass 0 in 3500 ft
Alpine Meadows 0 in 3500 ft
Stampede Pass 1 in 3860 ft

Earthquake Activity

City Distance Mag. Time & Date
No recent earthquake activity has been reported nearby.
Minimum magnitude displayed is 2.5.

Coastal Water Temperatures

Place Temperature
Port Townsend, WA 53.1 °F
Seattle, WA 55.9 °F
Friday Harbor, WA 53.1 °F
Tacoma, WA 55.0 °F

Nearby Weather Stations